Buoy 44845

sailwx.info

Track history (hours):
 
Tides and Currents Weather Stations Pressure Air Temp Water Temp Dewpoint Dewpoint Depression Visibility Wind Speed Wind Dir Waves Ship Positions

Drifting buoy 44845

Last reported at 2016-May-02 22:01 UTC. Time now 2016-May-02 23:13 UTC.
Position N 71°42' E 004°18'.

Date/timePositionNaut miles runAvg speedWind from/ knotsBaromVisibWave heightAir tempDewpointWater temp
2016-May-02 22:01N 71°42' E 004°18'1 1.0
2016-May-02 21:01N 71°42' E 004°20'1 1.1
2016-May-02 20:01N 71°41' E 004°23'1 1.1
2016-May-02 19:01N 71°40' E 004°25'2 2.2
2016-May-02 18:01N 71°39' E 004°31'0 0.0
2016-May-02 17:01N 71°39' E 004°31'1 1.2
2016-May-02 16:01N 71°38' E 004°34'1 1.2
2016-May-02 15:01N 71°37' E 004°37'1 1.2
2016-May-02 14:01N 71°37' E 004°41'1 1.0
2016-May-02 13:01N 71°37' E 004°44'1 1.0
2016-May-02 12:01N 71°37' E 004°47'1 0.8
2016-May-02 11:01N 71°36' E 004°49'1 0.7
2016-May-02 09:01N 71°36' E 004°54'2 0.5
2016-May-02 06:01N 71°36' E 004°59'2 0.6
2016-May-02 02:01N 71°35' E 005°06'0 0.3
2016-May-02 01:01N 71°35' E 005°07'1 0.3
2016-May-01 23:01N 71°35' E 005°08'0 0.3
2016-May-01 22:01N 71°34' E 005°09'0 0.3
2016-May-01 21:01N 71°34' E 005°10'0 0.2
2016-May-01 20:01N 71°34' E 005°11'0 0.3
2016-May-01 19:01N 71°34' E 005°11'0 0.5
2016-May-01 18:01N 71°34' E 005°12'1 0.6
2016-May-01 16:01N 71°33' E 005°15'1 0.7
2016-May-01 15:01N 71°32' E 005°16'1 0.8
2016-May-01 14:01N 71°32' E 005°18'1 0.9
2016-May-01 13:01N 71°31' E 005°21'1 0.9
2016-May-01 12:01N 71°31' E 005°23'1 0.9
2016-May-01 11:01N 71°30' E 005°26'1 1.0
2016-May-01 10:01N 71°30' E 005°29'1 1.0
2016-May-01 09:01N 71°29' E 005°32'1 1.0
2016-May-01 08:01N 71°29' E 005°34'1 0.9
2016-May-01 07:01N 71°29' E 005°37'1 0.9
2016-May-01 06:01N 71°29' E 005°40'1 0.8
2016-May-01 05:01N 71°28' E 005°42'1 0.8
2016-May-01 04:01N 71°28' E 005°45'1 0.8
2016-May-01 03:01N 71°28' E 005°48'1 0.7
2016-May-01 01:01N 71°28' E 005°52'0 0.4
2016-May-01 00:01N 71°28' E 005°53'0 0.4
2016-Apr-30 23:01N 71°28' E 005°54'0 0.4
2016-Apr-30 22:01N 71°29' E 005°55'0 0.4
2016-Apr-30 21:01N 71°29' E 005°56'1 0.5
2016-Apr-30 20:01N 71°29' E 005°57'1 0.6
2016-Apr-30 19:01N 71°30' E 005°59'1 0.6
2016-Apr-30 18:01N 71°30' E 005°59'1 0.7
2016-Apr-30 17:01N 71°31' E 006°01'1 0.9
2016-Apr-30 16:01N 71°32' E 006°03'1 1.0
2016-Apr-30 15:01N 71°32' E 006°05'1 0.9
2016-Apr-30 14:01N 71°32' E 006°07'1 0.6
2016-Apr-30 13:01N 71°32' E 006°09'1 0.6
2016-Apr-30 12:01N 71°32' E 006°10'1 0.5
2016-Apr-30 11:01N 71°31' E 006°10'0 0.5
2016-Apr-30 10:01N 71°31' E 006°10'0 0.3
2016-Apr-30 09:01N 71°31' E 006°10'0 0.1
2016-Apr-30 08:01N 71°31' E 006°09'0 0.4
2016-Apr-30 07:01N 71°31' E 006°09'0 0.5
2016-Apr-30 06:01N 71°31' E 006°09'1 0.7
2016-Apr-30 05:01N 71°32' E 006°09'1 1.0
2016-Apr-30 04:01N 71°33' E 006°10'1 0.7
2016-Apr-30 03:01N 71°34' E 006°12'0 0.4
2016-Apr-30 02:01N 71°34' E 006°13'1 1.1
2016-Apr-30 01:01N 71°33' E 006°10'1 1.1
2016-Apr-30 00:01N 71°33' E 006°14'0 0.4
2016-Apr-29 23:01N 71°32' E 006°14'0 0.4
2016-Apr-29 22:01N 71°32' E 006°14'0 0.5
2016-Apr-29 21:01N 71°32' E 006°15'1 0.4
2016-Apr-29 19:01N 71°31' E 006°17'0 0.4
2016-Apr-29 18:01N 71°31' E 006°19'0 0.4
2016-Apr-29 17:01N 71°31' E 006°20'0 0.4
2016-Apr-29 16:01N 71°31' E 006°21'0 0.5
2016-Apr-29 15:01N 71°31' E 006°23'1 0.5
2016-Apr-29 13:01N 71°31' E 006°26'1 0.6
2016-Apr-29 11:01N 71°31' E 006°30'0 0.5
2016-Apr-29 10:01N 71°31' E 006°31'1 0.6
2016-Apr-29 09:01N 71°32' E 006°33'0 0.5
2016-Apr-29 08:01N 71°32' E 006°34'0 0.2
2016-Apr-29 07:01N 71°32' E 006°35'0 0.1
2016-Apr-29 06:01N 71°32' E 006°35'0 0.2
2016-Apr-29 05:01N 71°32' E 006°35'0 0.4
2016-Apr-29 04:01N 71°31' E 006°34'0 0.4
2016-Apr-29 03:01N 71°31' E 006°33'1 0.5
2016-Apr-29 02:01N 71°31' E 006°33'1 0.5
2016-Apr-29 01:01N 71°30' E 006°32'1 0.6
2016-Apr-29 00:01N 71°30' E 006°32'1 0.7
2016-Apr-28 23:01N 71°29' E 006°32'1 0.7
2016-Apr-28 21:01N 71°28' E 006°32'1 0.7
2016-Apr-28 20:01N 71°27' E 006°32'1 0.6
2016-Apr-28 19:01N 71°26' E 006°31'1 0.7
2016-Apr-28 17:01N 71°25' E 006°30'1 0.7
2016-Apr-28 16:01N 71°24' E 006°29'1 0.8
2016-Apr-28 15:01N 71°24' E 006°28'1 0.9
2016-Apr-28 14:01N 71°23' E 006°27'2 1.1
2016-Apr-28 12:01N 71°21' E 006°24'1 1.4
2016-Apr-28 11:01N 71°19' E 006°23'1 1.4
2016-Apr-28 10:01N 71°18' E 006°22'1 1.4
2016-Apr-28 09:01N 71°17' E 006°21'1 1.3
2016-Apr-28 08:01N 71°15' E 006°21'1 1.3
2016-Apr-28 07:01N 71°14' E 006°21'1 1.1
2016-Apr-28 06:01N 71°13' E 006°21'1 0.7
2016-Apr-28 05:01N 71°12' E 006°21'1 0.6
2016-Apr-28 04:01N 71°12' E 006°21'1 0.5
2016-Apr-28 03:01N 71°11' E 006°21'0 0.5
2016-Apr-28 02:01N 71°11' E 006°21'1 0.5
2016-Apr-28 01:01N 71°10' E 006°21'1 0.7
2016-Apr-28 00:01N 71°09' E 006°21'1 0.6
2016-Apr-27 23:01N 71°09' E 006°21'1 0.7
2016-Apr-27 21:01N 71°08' E 006°24'1 0.8
2016-Apr-27 20:01N 71°07' E 006°25'1 0.7
2016-Apr-27 18:01N 71°07' E 006°29'1 0.6
2016-Apr-27 16:01N 71°07' E 006°33'1 0.6
2016-Apr-27 15:01N 71°08' E 006°34'0 0.4
2016-Apr-27 14:01N 71°08' E 006°35'0 0.4
2016-Apr-27 13:01N 71°08' E 006°36'0 0.2
2016-Apr-27 11:01N 71°08' E 006°37'0 0.1
2016-Apr-27 10:01N 71°08' E 006°38'0 0.2
2016-Apr-27 09:01N 71°08' E 006°38'0 0.3
2016-Apr-27 08:01N 71°08' E 006°39'0 0.4
2016-Apr-27 07:01N 71°08' E 006°39'0 0.2
2016-Apr-27 05:01N 71°07' E 006°40'0 0.2
2016-Apr-27 04:01N 71°07' E 006°40'0 0.2
2016-Apr-27 03:01N 71°07' E 006°40'0 0.4
2016-Apr-27 02:01N 71°07' E 006°40'0 0.3
2016-Apr-27 01:01N 71°06' E 006°40'0 0.4
2016-Apr-27 00:01N 71°06' E 006°39'0 0.4
2016-Apr-26 23:01N 71°05' E 006°39'0 0.5
2016-Apr-26 22:01N 71°05' E 006°38'0 0.4
2016-Apr-26 21:01N 71°05' E 006°38'1 0.5
2016-Apr-26 20:01N 71°04' E 006°37'1 0.5
2016-Apr-26 19:01N 71°04' E 006°37'0 0.5
2016-Apr-26 18:01N 71°03' E 006°36'1 0.5
2016-Apr-26 17:01N 71°03' E 006°36'0 0.4
2016-Apr-26 16:01N 71°02' E 006°37'1 0.5
2016-Apr-26 15:01N 71°02' E 006°38'0 0.4
2016-Apr-26 14:01N 71°02' E 006°39'0 0.3
2016-Apr-26 13:01N 71°01' E 006°39'0 0.3
2016-Apr-26 12:01N 71°01' E 006°39'0 0.4
2016-Apr-26 11:01N 71°01' E 006°38'0 0.3
2016-Apr-26 10:01N 71°00' E 006°39'0 0.4
2016-Apr-26 09:01N 70°60' E 006°39'0 0.5
2016-Apr-26 08:01N 70°60' E 006°39'1 0.5
2016-Apr-26 07:01N 70°59' E 006°40'1 0.5
2016-Apr-26 05:01N 70°58' E 006°41'0 0.4
2016-Apr-26 04:01N 70°58' E 006°42'0 0.5
2016-Apr-26 03:01N 70°57' E 006°42'0 0.5
2016-Apr-26 02:01N 70°57' E 006°42'1 0.6
2016-Apr-26 00:01N 70°56' E 006°42'1 0.7
2016-Apr-25 23:01N 70°55' E 006°42'2 0.8
2016-Apr-25 21:01N 70°53' E 006°42'1 0.7
2016-Apr-25 20:01N 70°53' E 006°42'1 0.8
2016-Apr-25 19:01N 70°52' E 006°43'1 0.7
2016-Apr-25 18:01N 70°51' E 006°44'1 0.6
2016-Apr-25 17:01N 70°51' E 006°45'1 0.6
2016-Apr-25 16:01N 70°50' E 006°45'1 0.6
2016-Apr-25 15:01N 70°50' E 006°45'2 0.8
2016-Apr-25 13:01N 70°48' E 006°46'1 0.8
2016-Apr-25 12:01N 70°47' E 006°47'1 0.8
2016-Apr-25 11:01N 70°47' E 006°48'1 0.6
2016-Apr-25 10:01N 70°46' E 006°49'1 0.6
2016-Apr-25 09:01N 70°46' E 006°50'1 0.7
2016-Apr-25 08:01N 70°45' E 006°51'1 0.8
2016-Apr-25 07:01N 70°45' E 006°54'1 0.9
2016-Apr-25 06:01N 70°44' E 006°56'1 0.9
2016-Apr-25 05:01N 70°44' E 006°58'1 0.9
2016-Apr-25 04:01N 70°43' E 007°01'1 0.9
2016-Apr-25 03:01N 70°43' E 007°03'2 0.9
2016-Apr-25 01:01N 70°42' E 007°09'1 0.8
2016-Apr-25 00:01N 70°42' E 007°11'1 0.6
2016-Apr-24 23:01N 70°42' E 007°12'1 0.8
2016-Apr-24 22:01N 70°42' E 007°15'1 0.9
2016-Apr-24 21:01N 70°41' E 007°17'1 1.0
2016-Apr-24 20:01N 70°41' E 007°20'1 1.0
2016-Apr-24 19:01N 70°41' E 007°23'1 1.0
2016-Apr-24 18:01N 70°41' E 007°26'1 1.0
2016-Apr-24 17:01N 70°41' E 007°29'1 1.0
2016-Apr-24 16:01N 70°40' E 007°32'1 0.9
2016-Apr-24 15:01N 70°40' E 007°35'1 0.9
2016-Apr-24 14:01N 70°40' E 007°38'1 0.8
2016-Apr-24 13:01N 70°40' E 007°40'1 0.6
2016-Apr-24 11:01N 70°40' E 007°44'1 0.6
2016-Apr-24 10:01N 70°40' E 007°45'1 0.5
2016-Apr-24 09:01N 70°41' E 007°47'1 0.5
2016-Apr-24 08:01N 70°41' E 007°49'1 0.6
2016-Apr-24 07:01N 70°41' E 007°50'1 0.6
2016-Apr-24 06:01N 70°41' E 007°52'1 0.5
2016-Apr-24 05:01N 70°41' E 007°53'1 0.5
2016-Apr-24 04:01N 70°41' E 007°55'1 0.6
2016-Apr-24 03:01N 70°42' E 007°56'0 0.5
2016-Apr-24 02:01N 70°42' E 007°57'0 0.4
2016-Apr-24 01:01N 70°42' E 007°58'0 0.4
2016-Apr-24 00:01N 70°43' E 007°58'0 0.4
2016-Apr-23 23:01N 70°43' E 007°59'1 0.5
2016-Apr-23 21:01N 70°44' E 008°01'0 0.4
2016-Apr-23 20:01N 70°44' E 008°01'1 0.5
2016-Apr-23 19:01N 70°45' E 008°02'1 0.5
2016-Apr-23 18:01N 70°45' E 008°03'1 0.5
2016-Apr-23 17:01N 70°45' E 008°04'1 0.6
2016-Apr-23 16:01N 70°46' E 008°05'0 0.4
2016-Apr-23 15:01N 70°46' E 008°05'1 0.5
2016-Apr-23 13:01N 70°47' E 008°06'1 0.6
2016-Apr-23 12:01N 70°48' E 008°07'1 0.6
2016-Apr-23 11:01N 70°49' E 008°07'2 0.8
2016-Apr-23 09:01N 70°50' E 008°08'1 0.8
2016-Apr-23 08:01N 70°51' E 008°08'1 1.0
2016-Apr-23 07:01N 70°52' E 008°07'1 0.9
2016-Apr-23 06:01N 70°53' E 008°06'1 0.9
2016-Apr-23 05:01N 70°54' E 008°06'1 0.8
2016-Apr-23 04:01N 70°54' E 008°05'1 0.7
2016-Apr-23 03:01N 70°55' E 008°04'1 0.7
2016-Apr-23 02:01N 70°55' E 008°02'1 0.8
2016-Apr-23 01:01N 70°56' E 008°00'2 1.1
2016-Apr-22 23:01N 70°58' E 007°56'1 1.4
2016-Apr-22 22:01N 70°59' E 007°53'  
Track history (hours):
 
Tides and Currents Weather Stations Pressure Air Temp Water Temp Dewpoint Dewpoint Depression Visibility Wind Speed Wind Dir Waves Ship Positions

Drifting buoy 44845

Last reported at 2016-May-02 22:01 UTC. Time now 2016-May-02 23:13 UTC.
Position N 71°42' E 004°18'.

Date/timePositionNaut miles runAvg speedWind from/ knotsBaromVisibWave heightAir tempDewpointWater temp
2016-May-02 22:01N 71°42' E 004°18'1 1.0
2016-May-02 21:01N 71°42' E 004°20'1 1.1
2016-May-02 20:01N 71°41' E 004°23'1 1.1
2016-May-02 19:01N 71°40' E 004°25'2 2.2
2016-May-02 18:01N 71°39' E 004°31'0 0.0
2016-May-02 17:01N 71°39' E 004°31'1 1.2
2016-May-02 16:01N 71°38' E 004°34'1 1.2
2016-May-02 15:01N 71°37' E 004°37'1 1.2
2016-May-02 14:01N 71°37' E 004°41'1 1.0
2016-May-02 13:01N 71°37' E 004°44'1 1.0
2016-May-02 12:01N 71°37' E 004°47'1 0.8
2016-May-02 11:01N 71°36' E 004°49'1 0.7
2016-May-02 09:01N 71°36' E 004°54'2 0.5
2016-May-02 06:01N 71°36' E 004°59'2 0.6
2016-May-02 02:01N 71°35' E 005°06'0 0.3
2016-May-02 01:01N 71°35' E 005°07'1 0.3
2016-May-01 23:01N 71°35' E 005°08'0 0.3
2016-May-01 22:01N 71°34' E 005°09'0 0.3
2016-May-01 21:01N 71°34' E 005°10'0 0.2
2016-May-01 20:01N 71°34' E 005°11'0 0.3
2016-May-01 19:01N 71°34' E 005°11'0 0.5
2016-May-01 18:01N 71°34' E 005°12'1 0.6
2016-May-01 16:01N 71°33' E 005°15'1 0.7
2016-May-01 15:01N 71°32' E 005°16'1 0.8
2016-May-01 14:01N 71°32' E 005°18'1 0.9
2016-May-01 13:01N 71°31' E 005°21'1 0.9
2016-May-01 12:01N 71°31' E 005°23'1 0.9
2016-May-01 11:01N 71°30' E 005°26'1 1.0
2016-May-01 10:01N 71°30' E 005°29'1 1.0
2016-May-01 09:01N 71°29' E 005°32'1 1.0
2016-May-01 08:01N 71°29' E 005°34'1 0.9
2016-May-01 07:01N 71°29' E 005°37'1 0.9
2016-May-01 06:01N 71°29' E 005°40'1 0.8
2016-May-01 05:01N 71°28' E 005°42'1 0.8
2016-May-01 04:01N 71°28' E 005°45'1 0.8
2016-May-01 03:01N 71°28' E 005°48'1 0.7
2016-May-01 01:01N 71°28' E 005°52'0 0.4
2016-May-01 00:01N 71°28' E 005°53'0 0.4
2016-Apr-30 23:01N 71°28' E 005°54'0 0.4
2016-Apr-30 22:01N 71°29' E 005°55'0 0.4
2016-Apr-30 21:01N 71°29' E 005°56'1 0.5
2016-Apr-30 20:01N 71°29' E 005°57'1 0.6
2016-Apr-30 19:01N 71°30' E 005°59'1 0.6
2016-Apr-30 18:01N 71°30' E 005°59'1 0.7
2016-Apr-30 17:01N 71°31' E 006°01'1 0.9
2016-Apr-30 16:01N 71°32' E 006°03'1 1.0
2016-Apr-30 15:01N 71°32' E 006°05'1 0.9
2016-Apr-30 14:01N 71°32' E 006°07'1 0.6
2016-Apr-30 13:01N 71°32' E 006°09'1 0.6
2016-Apr-30 12:01N 71°32' E 006°10'1 0.5
2016-Apr-30 11:01N 71°31' E 006°10'0 0.5
2016-Apr-30 10:01N 71°31' E 006°10'0 0.3
2016-Apr-30 09:01N 71°31' E 006°10'0 0.1
2016-Apr-30 08:01N 71°31' E 006°09'0 0.4
2016-Apr-30 07:01N 71°31' E 006°09'0 0.5
2016-Apr-30 06:01N 71°31' E 006°09'1 0.7
2016-Apr-30 05:01N 71°32' E 006°09'1 1.0
2016-Apr-30 04:01N 71°33' E 006°10'1 0.7
2016-Apr-30 03:01N 71°34' E 006°12'0 0.4
2016-Apr-30 02:01N 71°34' E 006°13'1 1.1
2016-Apr-30 01:01N 71°33' E 006°10'1 1.1
2016-Apr-30 00:01N 71°33' E 006°14'0 0.4
2016-Apr-29 23:01N 71°32' E 006°14'0 0.4
2016-Apr-29 22:01N 71°32' E 006°14'0 0.5
2016-Apr-29 21:01N 71°32' E 006°15'1 0.4
2016-Apr-29 19:01N 71°31' E 006°17'0 0.4
2016-Apr-29 18:01N 71°31' E 006°19'0 0.4
2016-Apr-29 17:01N 71°31' E 006°20'0 0.4
2016-Apr-29 16:01N 71°31' E 006°21'0 0.5
2016-Apr-29 15:01N 71°31' E 006°23'1 0.5
2016-Apr-29 13:01N 71°31' E 006°26'1 0.6
2016-Apr-29 11:01N 71°31' E 006°30'0 0.5
2016-Apr-29 10:01N 71°31' E 006°31'1 0.6
2016-Apr-29 09:01N 71°32' E 006°33'0 0.5
2016-Apr-29 08:01N 71°32' E 006°34'0 0.2
2016-Apr-29 07:01N 71°32' E 006°35'0 0.1
2016-Apr-29 06:01N 71°32' E 006°35'0 0.2
2016-Apr-29 05:01N 71°32' E 006°35'0 0.4
2016-Apr-29 04:01N 71°31' E 006°34'0 0.4
2016-Apr-29 03:01N 71°31' E 006°33'1 0.5
2016-Apr-29 02:01N 71°31' E 006°33'1 0.5
2016-Apr-29 01:01N 71°30' E 006°32'1 0.6
2016-Apr-29 00:01N 71°30' E 006°32'1 0.7
2016-Apr-28 23:01N 71°29' E 006°32'1 0.7
2016-Apr-28 21:01N 71°28' E 006°32'1 0.7
2016-Apr-28 20:01N 71°27' E 006°32'1 0.6
2016-Apr-28 19:01N 71°26' E 006°31'1 0.7
2016-Apr-28 17:01N 71°25' E 006°30'1 0.7
2016-Apr-28 16:01N 71°24' E 006°29'1 0.8
2016-Apr-28 15:01N 71°24' E 006°28'1 0.9
2016-Apr-28 14:01N 71°23' E 006°27'2 1.1
2016-Apr-28 12:01N 71°21' E 006°24'1 1.4
2016-Apr-28 11:01N 71°19' E 006°23'1 1.4
2016-Apr-28 10:01N 71°18' E 006°22'1 1.4
2016-Apr-28 09:01N 71°17' E 006°21'1 1.3
2016-Apr-28 08:01N 71°15' E 006°21'1 1.3
2016-Apr-28 07:01N 71°14' E 006°21'1 1.1
2016-Apr-28 06:01N 71°13' E 006°21'1 0.7
2016-Apr-28 05:01N 71°12' E 006°21'1 0.6
2016-Apr-28 04:01N 71°12' E 006°21'1 0.5
2016-Apr-28 03:01N 71°11' E 006°21'0 0.5
2016-Apr-28 02:01N 71°11' E 006°21'1 0.5
2016-Apr-28 01:01N 71°10' E 006°21'1 0.7
2016-Apr-28 00:01N 71°09' E 006°21'1 0.6
2016-Apr-27 23:01N 71°09' E 006°21'1 0.7
2016-Apr-27 21:01N 71°08' E 006°24'1 0.8
2016-Apr-27 20:01N 71°07' E 006°25'1 0.7
2016-Apr-27 18:01N 71°07' E 006°29'1 0.6
2016-Apr-27 16:01N 71°07' E 006°33'1 0.6
2016-Apr-27 15:01N 71°08' E 006°34'0 0.4
2016-Apr-27 14:01N 71°08' E 006°35'0 0.4
2016-Apr-27 13:01N 71°08' E 006°36'0 0.2
2016-Apr-27 11:01N 71°08' E 006°37'0 0.1
2016-Apr-27 10:01N 71°08' E 006°38'0 0.2
2016-Apr-27 09:01N 71°08' E 006°38'0 0.3
2016-Apr-27 08:01N 71°08' E 006°39'0 0.4
2016-Apr-27 07:01N 71°08' E 006°39'0 0.2
2016-Apr-27 05:01N 71°07' E 006°40'0 0.2
2016-Apr-27 04:01N 71°07' E 006°40'0 0.2
2016-Apr-27 03:01N 71°07' E 006°40'0 0.4
2016-Apr-27 02:01N 71°07' E 006°40'0 0.3
2016-Apr-27 01:01N 71°06' E 006°40'0 0.4
2016-Apr-27 00:01N 71°06' E 006°39'0 0.4
2016-Apr-26 23:01N 71°05' E 006°39'0 0.5
2016-Apr-26 22:01N 71°05' E 006°38'0 0.4
2016-Apr-26 21:01N 71°05' E 006°38'1 0.5
2016-Apr-26 20:01N 71°04' E 006°37'1 0.5
2016-Apr-26 19:01N 71°04' E 006°37'0 0.5
2016-Apr-26 18:01N 71°03' E 006°36'1 0.5
2016-Apr-26 17:01N 71°03' E 006°36'0 0.4
2016-Apr-26 16:01N 71°02' E 006°37'1 0.5
2016-Apr-26 15:01N 71°02' E 006°38'0 0.4
2016-Apr-26 14:01N 71°02' E 006°39'0 0.3
2016-Apr-26 13:01N 71°01' E 006°39'0 0.3
2016-Apr-26 12:01N 71°01' E 006°39'0 0.4
2016-Apr-26 11:01N 71°01' E 006°38'0 0.3
2016-Apr-26 10:01N 71°00' E 006°39'0 0.4
2016-Apr-26 09:01N 70°60' E 006°39'0 0.5
2016-Apr-26 08:01N 70°60' E 006°39'1 0.5
2016-Apr-26 07:01N 70°59' E 006°40'1 0.5
2016-Apr-26 05:01N 70°58' E 006°41'0 0.4
2016-Apr-26 04:01N 70°58' E 006°42'0 0.5
2016-Apr-26 03:01N 70°57' E 006°42'0 0.5
2016-Apr-26 02:01N 70°57' E 006°42'1 0.6
2016-Apr-26 00:01N 70°56' E 006°42'1 0.7
2016-Apr-25 23:01N 70°55' E 006°42'2 0.8
2016-Apr-25 21:01N 70°53' E 006°42'1 0.7
2016-Apr-25 20:01N 70°53' E 006°42'1 0.8
2016-Apr-25 19:01N 70°52' E 006°43'1 0.7
2016-Apr-25 18:01N 70°51' E 006°44'1 0.6
2016-Apr-25 17:01N 70°51' E 006°45'1 0.6
2016-Apr-25 16:01N 70°50' E 006°45'1 0.6
2016-Apr-25 15:01N 70°50' E 006°45'2 0.8
2016-Apr-25 13:01N 70°48' E 006°46'1 0.8
2016-Apr-25 12:01N 70°47' E 006°47'1 0.8
2016-Apr-25 11:01N 70°47' E 006°48'1 0.6
2016-Apr-25 10:01N 70°46' E 006°49'1 0.6
2016-Apr-25 09:01N 70°46' E 006°50'1 0.7
2016-Apr-25 08:01N 70°45' E 006°51'1 0.8
2016-Apr-25 07:01N 70°45' E 006°54'1 0.9
2016-Apr-25 06:01N 70°44' E 006°56'1 0.9
2016-Apr-25 05:01N 70°44' E 006°58'1 0.9
2016-Apr-25 04:01N 70°43' E 007°01'1 0.9
2016-Apr-25 03:01N 70°43' E 007°03'2 0.9
2016-Apr-25 01:01N 70°42' E 007°09'1 0.8
2016-Apr-25 00:01N 70°42' E 007°11'1 0.6
2016-Apr-24 23:01N 70°42' E 007°12'1 0.8
2016-Apr-24 22:01N 70°42' E 007°15'1 0.9
2016-Apr-24 21:01N 70°41' E 007°17'1 1.0
2016-Apr-24 20:01N 70°41' E 007°20'1 1.0
2016-Apr-24 19:01N 70°41' E 007°23'1 1.0
2016-Apr-24 18:01N 70°41' E 007°26'1 1.0
2016-Apr-24 17:01N 70°41' E 007°29'1 1.0
2016-Apr-24 16:01N 70°40' E 007°32'1 0.9
2016-Apr-24 15:01N 70°40' E 007°35'1 0.9
2016-Apr-24 14:01N 70°40' E 007°38'1 0.8
2016-Apr-24 13:01N 70°40' E 007°40'1 0.6
2016-Apr-24 11:01N 70°40' E 007°44'1 0.6
2016-Apr-24 10:01N 70°40' E 007°45'1 0.5
2016-Apr-24 09:01N 70°41' E 007°47'1 0.5
2016-Apr-24 08:01N 70°41' E 007°49'1 0.6
2016-Apr-24 07:01N 70°41' E 007°50'1 0.6
2016-Apr-24 06:01N 70°41' E 007°52'1 0.5
2016-Apr-24 05:01N 70°41' E 007°53'1 0.5
2016-Apr-24 04:01N 70°41' E 007°55'1 0.6
2016-Apr-24 03:01N 70°42' E 007°56'0 0.5
2016-Apr-24 02:01N 70°42' E 007°57'0 0.4
2016-Apr-24 01:01N 70°42' E 007°58'0 0.4
2016-Apr-24 00:01N 70°43' E 007°58'0 0.4
2016-Apr-23 23:01N 70°43' E 007°59'1 0.5
2016-Apr-23 21:01N 70°44' E 008°01'0 0.4
2016-Apr-23 20:01N 70°44' E 008°01'1 0.5
2016-Apr-23 19:01N 70°45' E 008°02'1 0.5
2016-Apr-23 18:01N 70°45' E 008°03'1 0.5
2016-Apr-23 17:01N 70°45' E 008°04'1 0.6
2016-Apr-23 16:01N 70°46' E 008°05'0 0.4
2016-Apr-23 15:01N 70°46' E 008°05'1 0.5
2016-Apr-23 13:01N 70°47' E 008°06'1 0.6
2016-Apr-23 12:01N 70°48' E 008°07'1 0.6
2016-Apr-23 11:01N 70°49' E 008°07'2 0.8
2016-Apr-23 09:01N 70°50' E 008°08'1 0.8
2016-Apr-23 08:01N 70°51' E 008°08'1 1.0
2016-Apr-23 07:01N 70°52' E 008°07'1 0.9
2016-Apr-23 06:01N 70°53' E 008°06'1 0.9
2016-Apr-23 05:01N 70°54' E 008°06'1 0.8
2016-Apr-23 04:01N 70°54' E 008°05'1 0.7
2016-Apr-23 03:01N 70°55' E 008°04'1 0.7
2016-Apr-23 02:01N 70°55' E 008°02'1 0.8
2016-Apr-23 01:01N 70°56' E 008°00'2 1.1
2016-Apr-22 23:01N 70°58' E 007°56'1 1.4
2016-Apr-22 22:01N 70°59' E 007°53'  

Dump ship's entire track history